Terminal Aerodrome Forecast
Issued by NWS Cleveland, OH

Home | Current Version | Previous Version | Graphics & Text | Print | Product List | Glossary On
Versions: 1 2 3 4 5 6 7 8 9 10 11 12 13 14 15 16 17 18 19 20 21 22
561
FTUS41 KCLE 291939 AAA
TAFERI
TAF AMD
KERI 291939Z 2920/3018 05005KT 5SM BR OVC015
      TEMPO 2920/2922 2SM -SHRA
     FM292200 02008KT P6SM BKN025
     FM300100 VRB04KT P6SM SCT025
     FM300900 VRB03KT 5SM BR OVC010=

USA.gov is the U.S. government's official web portal to all federal, state and local government web resources and services.